sensor_id;sensor_type;location;lat;lon;timestamp;P1;durP1;ratioP1;P2;durP2;ratioP2
61411;SDS011;47278;49.732;7.690;2022-10-13T06:49:15;21.85;;;13.73;;
61411;SDS011;47278;49.732;7.690;2022-10-13T06:51:41;25.90;;;14.10;;
61411;SDS011;47278;49.732;7.690;2022-10-13T06:54:07;21.02;;;12.85;;
61411;SDS011;47278;49.732;7.690;2022-10-13T06:56:32;18.27;;;12.23;;
61411;SDS011;47278;49.732;7.690;2022-10-13T06:58:58;18.85;;;12.18;;
61411;SDS011;47278;49.732;7.690;2022-10-13T07:01:23;18.65;;;12.20;;
61411;SDS011;47278;49.732;7.690;2022-10-13T07:03:50;20.02;;;13.05;;
61411;SDS011;47278;49.732;7.690;2022-10-13T07:06:16;20.45;;;13.52;;
61411;SDS011;47278;49.732;7.690;2022-10-13T07:08:42;19.67;;;13.35;;
61411;SDS011;47278;49.732;7.690;2022-10-13T07:11:09;20.05;;;13.43;;
61411;SDS011;47278;49.732;7.690;2022-10-13T07:13:37;19.00;;;12.60;;
61411;SDS011;47278;49.732;7.690;2022-10-13T07:16:03;19.13;;;12.57;;
61411;SDS011;47278;49.732;7.690;2022-10-13T07:18:30;16.80;;;11.43;;
61411;SDS011;47278;49.732;7.690;2022-10-13T07:20:57;18.67;;;12.70;;
61411;SDS011;47278;49.732;7.690;2022-10-13T07:23:23;16.95;;;12.95;;
61411;SDS011;47278;49.732;7.690;2022-10-13T07:25:49;18.35;;;11.73;;
61411;SDS011;47278;49.732;7.690;2022-10-13T07:28:15;15.55;;;11.05;;
61411;SDS011;47278;49.732;7.690;2022-10-13T07:30:41;17.25;;;11.18;;
61411;SDS011;47278;49.732;7.690;2022-10-13T07:33:07;18.60;;;13.75;;
61411;SDS011;47278;49.732;7.690;2022-10-13T07:35:33;18.30;;;13.05;;
61411;SDS011;47278;49.732;7.690;2022-10-13T07:37:58;20.42;;;12.40;;
61411;SDS011;47278;49.732;7.690;2022-10-13T07:40:24;16.13;;;10.85;;
61411;SDS011;47278;49.732;7.690;2022-10-13T07:42:50;18.08;;;11.02;;
61411;SDS011;47278;49.732;7.690;2022-10-13T07:45:16;15.82;;;11.52;;
61411;SDS011;47278;49.732;7.690;2022-10-13T07:47:42;17.35;;;10.95;;
61411;SDS011;47278;49.732;7.690;2022-10-13T07:50:08;18.02;;;11.68;;
61411;SDS011;47278;49.732;7.690;2022-10-13T07:52:34;15.10;;;11.32;;
61411;SDS011;47278;49.732;7.690;2022-10-13T07:55:01;17.42;;;11.15;;
61411;SDS011;47278;49.732;7.690;2022-10-13T07:57:27;16.33;;;11.00;;
61411;SDS011;47278;49.732;7.690;2022-10-13T07:59:52;16.75;;;10.77;;
61411;SDS011;47278;49.732;7.690;2022-10-13T08:02:18;15.50;;;10.75;;
61411;SDS011;47278;49.732;7.690;2022-10-13T08:04:44;17.95;;;11.13;;
61411;SDS011;47278;49.732;7.690;2022-10-13T08:07:09;18.13;;;12.00;;
61411;SDS011;47278;49.732;7.690;2022-10-13T08:09:35;20.42;;;13.30;;
61411;SDS011;47278;49.732;7.690;2022-10-13T08:12:01;16.02;;;12.18;;
61411;SDS011;47278;49.732;7.690;2022-10-13T08:14:27;16.23;;;11.48;;
61411;SDS011;47278;49.732;7.690;2022-10-13T08:16:55;15.60;;;12.05;;
61411;SDS011;47278;49.732;7.690;2022-10-13T08:19:22;16.42;;;11.27;;
61411;SDS011;47278;49.732;7.690;2022-10-13T08:21:50;13.77;;;10.77;;
61411;SDS011;47278;49.732;7.690;2022-10-13T08:24:16;16.98;;;11.20;;
61411;SDS011;47278;49.732;7.690;2022-10-13T08:26:43;16.23;;;11.45;;
61411;SDS011;47278;49.732;7.690;2022-10-13T08:29:10;16.30;;;11.68;;
61411;SDS011;47278;49.732;7.690;2022-10-13T08:31:37;16.80;;;11.35;;
61411;SDS011;47278;49.732;7.690;2022-10-13T08:34:03;16.83;;;12.20;;
61411;SDS011;47278;49.732;7.690;2022-10-13T08:36:29;19.17;;;11.27;;
61411;SDS011;47278;49.732;7.690;2022-10-13T08:38:54;15.60;;;11.02;;
61411;SDS011;47278;49.732;7.690;2022-10-13T08:46:23;16.98;;;11.27;;
61411;SDS011;47278;49.732;7.690;2022-10-13T08:48:51;17.88;;;11.55;;
61411;SDS011;47278;49.732;7.690;2022-10-13T08:51:17;17.00;;;12.55;;
